Time;durP1;ratioP1;P1;durP2;ratioP2;P2;SDS_P1;SDS_P2;PMS_P1;PMS_P2;Temp;Humidity;BMP_temperature;BMP_pressure;BME280_temperature;BME280_humidity;BME280_pressure;Samples;Min_cycle;Max_cycle;Signal;HPM_P1;HPM_P2
2024/01/02 00:01:03;;;;;;;12.60;3.70;;;6.30;99.90;;;;;;5017678;28;20577;-67
2024/01/02 00:03:30;;;;;;;13.97;3.57;;;6.40;99.90;;;;;;5017771;28;20460;-67
2024/01/02 00:05:57;;;;;;;8.60;3.30;;;6.40;99.90;;;;;;5017684;28;20466;-67
2024/01/02 00:08:25;;;;;;;8.97;2.97;;;6.40;99.90;;;;;;5017543;28;20464;-67
2024/01/02 00:10:52;;;;;;;8.13;3.10;;;6.40;99.90;;;;;;5017748;28;20481;-68
2024/01/02 00:13:19;;;;;;;8.80;3.20;;;6.40;99.90;;;;;;5017378;28;20492;-67
2024/01/02 00:15:48;;;;;;;8.70;3.07;;;6.40;99.90;;;;;;5017458;28;20463;-67
2024/01/02 00:18:15;;;;;;;5.80;2.70;;;6.40;99.90;;;;;;5017280;28;20882;-67
2024/01/02 00:20:42;;;;;;;8.97;2.70;;;6.40;99.90;;;;;;5017508;28;21063;-67
2024/01/02 00:23:10;;;;;;;11.90;3.20;;;6.40;99.90;;;;;;5017309;28;20470;-66
2024/01/02 00:25:37;;;;;;;9.37;3.13;;;6.40;99.90;;;;;;5016847;28;20542;-67
2024/01/02 00:28:05;;;;;;;6.13;2.97;;;6.40;99.90;;;;;;5017148;28;20460;-67
2024/01/02 00:30:34;;;;;;;7.80;2.50;;;6.50;99.90;;;;;;5017159;28;20466;-67
2024/01/02 00:33:03;;;;;;;9.50;3.03;;;6.50;99.90;;;;;;5016797;28;20463;-67
2024/01/02 00:35:30;;;;;;;7.50;2.83;;;6.50;99.90;;;;;;5016917;28;20455;-68
2024/01/02 00:37:57;;;;;;;6.50;2.83;;;6.50;99.90;;;;;;5016100;28;20571;-67
2024/01/02 00:40:24;;;;;;;11.23;2.73;;;6.50;99.90;;;;;;5016087;28;20464;-68
2024/01/02 00:42:51;;;;;;;8.17;2.97;;;6.50;99.90;;;;;;5016988;28;20467;-67
2024/01/02 00:45:19;;;;;;;8.93;3.00;;;6.50;99.90;;;;;;5016802;28;20464;-67
2024/01/02 00:47:46;;;;;;;8.63;3.00;;;6.50;99.90;;;;;;5016838;28;20543;-67
2024/01/02 00:50:15;;;;;;;6.37;2.30;;;6.50;99.90;;;;;;5016803;28;20463;-67
2024/01/02 00:52:43;;;;;;;10.90;3.93;;;6.50;99.90;;;;;;5017164;28;20542;-67
2024/01/02 00:55:10;;;;;;;7.93;2.50;;;6.50;99.90;;;;;;5015400;28;20460;-69
2024/01/02 00:57:37;;;;;;;8.00;2.57;;;6.50;99.90;;;;;;5015497;28;20550;-67
2024/01/02 01:00:06;;;;;;;6.87;2.77;;;6.50;99.90;;;;;;5015528;28;20903;-68
2024/01/02 01:02:33;;;;;;;4.83;2.37;;;6.50;99.90;;;;;;5015875;28;20595;-67
2024/01/02 01:05:04;;;;;;;6.70;2.73;;;6.50;99.90;;;;;;5016345;28;20936;-69
2024/01/02 01:07:32;;;;;;;5.03;2.50;;;6.50;99.90;;;;;;5015872;28;20814;-70
2024/01/02 01:10:00;;;;;;;8.40;2.50;;;6.50;99.90;;;;;;5016726;28;20463;-71
2024/01/02 01:12:27;;;;;;;8.17;3.60;;;6.50;99.90;;;;;;5017018;28;20825;-71
2024/01/02 01:14:54;;;;;;;8.53;3.20;;;6.50;99.90;;;;;;5017408;28;20495;-75
2024/01/02 01:17:21;;;;;;;6.27;2.37;;;6.50;99.90;;;;;;5016998;28;20499;-74
2024/01/02 01:19:48;;;;;;;5.80;3.00;;;6.50;99.90;;;;;;5017558;28;20464;-74
2024/01/02 01:22:15;;;;;;;5.40;2.83;;;6.50;99.90;;;;;;5017119;28;20502;-72
2024/01/02 01:24:47;;;;;;;8.13;2.80;;;6.50;99.90;;;;;;5018071;28;20811;-72
2024/01/02 01:27:14;;;;;;;8.40;3.07;;;6.50;99.90;;;;;;5020929;28;20468;-71
2024/01/02 01:29:41;;;;;;;8.13;2.43;;;6.50;99.90;;;;;;5021200;28;20502;-70
2024/01/02 01:32:09;;;;;;;12.27;3.13;;;6.50;99.90;;;;;;5021584;28;20466;-69
2024/01/02 01:34:36;;;;;;;9.40;3.23;;;6.60;99.90;;;;;;5023683;28;20471;-69
2024/01/02 01:37:03;;;;;;;5.80;2.43;;;6.60;99.90;;;;;;5027405;28;20488;-68
2024/01/02 01:39:30;;;;;;;6.20;3.30;;;6.60;99.90;;;;;;5026227;28;20461;-66
2024/01/02 01:41:59;;;;;;;4.93;2.80;;;6.60;99.90;;;;;;5026745;28;20586;-67
2024/01/02 01:44:27;;;;;;;9.50;3.80;;;6.60;99.90;;;;;;5026081;28;20484;-68
2024/01/02 01:46:54;;;;;;;7.43;3.90;;;6.60;99.90;;;;;;5023870;28;20468;-70
2024/01/02 01:49:22;;;;;;;12.30;4.10;;;6.60;99.90;;;;;;5019752;28;20518;-66
2024/01/02 01:51:51;;;;;;;6.70;3.33;;;6.60;99.90;;;;;;5020189;28;20745;-66
2024/01/02 01:54:19;;;;;;;7.13;2.93;;;6.60;99.90;;;;;;5019261;28;20460;-71
2024/01/02 01:56:46;;;;;;;4.87;2.73;;;6.60;99.90;;;;;;5020477;28;20464;-69
2024/01/02 01:59:16;;;;;;;6.83;2.60;;;6.60;99.90;;;;;;5019630;28;20951;-71
2024/01/02 02:01:45;;;;;;;6.90;2.50;;;6.60;99.90;;;;;;5019187;28;21028;-70
2024/01/02 02:04:13;;;;;;;6.00;2.60;;;6.60;99.90;;;;;;5018765;28;20460;-71
2024/01/02 02:06:40;;;;;;;5.80;2.67;;;6.70;99.90;;;;;;5019577;28;20558;-69
2024/01/02 02:09:07;;;;;;;11.93;2.93;;;6.60;99.90;;;;;;5019522;28;20460;-67
2024/01/02 02:11:36;;;;;;;5.57;2.40;;;6.60;99.90;;;;;;5019436;28;20459;-67
2024/01/02 02:14:04;;;;;;;4.27;2.00;;;6.60;99.90;;;;;;5019070;28;20844;-68
2024/01/02 02:16:34;;;;;;;5.70;2.37;;;6.60;99.90;;;;;;5020359;28;20810;-68
2024/01/02 02:19:01;;;;;;;5.30;2.57;;;6.60;99.90;;;;;;5020911;28;20490;-67
2024/01/02 02:21:28;;;;;;;5.03;2.10;;;6.70;99.90;;;;;;5021822;28;20492;-69
2024/01/02 02:23:57;;;;;;;4.30;2.00;;;6.60;99.90;;;;;;5020959;28;20484;-69
2024/01/02 02:26:24;;;;;;;5.77;1.83;;;6.60;99.90;;;;;;5022887;28;20435;-69
2024/01/02 02:28:51;;;;;;;3.40;2.10;;;6.60;99.90;;;;;;5023736;28;20554;-68
2024/01/02 02:31:18;;;;;;;6.23;1.57;;;6.60;99.90;;;;;;5021172;28;20470;-72
2024/01/02 02:33:46;;;;;;;5.47;1.87;;;6.70;99.90;;;;;;5021167;28;20547;-67
2024/01/02 02:36:13;;;;;;;3.80;1.90;;;6.60;99.90;;;;;;5021685;28;20467;-70
2024/01/02 02:38:40;;;;;;;3.53;1.57;;;6.60;99.90;;;;;;5023511;28;20943;-71
2024/01/02 02:41:11;;;;;;;3.43;1.80;;;6.70;99.90;;;;;;5021613;28;20460;-69
2024/01/02 02:43:38;;;;;;;3.13;1.50;;;6.60;99.90;;;;;;5023150;28;20567;-68
2024/01/02 02:46:06;;;;;;;3.60;1.50;;;6.60;99.90;;;;;;5021120;28;20460;-68
2024/01/02 02:48:33;;;;;;;5.57;1.60;;;6.60;99.90;;;;;;5020872;28;20459;-67
2024/01/02 02:51:00;;;;;;;6.83;2.20;;;6.60;99.90;;;;;;5020733;28;20774;-69
2024/01/02 02:53:27;;;;;;;7.73;1.57;;;6.60;99.90;;;;;;5020873;28;20877;-67
2024/01/02 02:55:54;;;;;;;7.20;2.07;;;6.60;99.90;;;;;;5020640;28;20467;-70
2024/01/02 02:58:23;;;;;;;2.60;1.60;;;6.60;99.90;;;;;;5020363;28;20765;-73
2024/01/02 03:00:50;;;;;;;4.97;1.97;;;6.60;99.90;;;;;;5019909;28;20460;-71
2024/01/02 03:03:17;;;;;;;2.53;1.40;;;6.50;99.90;;;;;;5019805;28;20578;-70
2024/01/02 03:05:44;;;;;;;2.50;1.30;;;6.50;99.90;;;;;;5020635;28;20460;-68
2024/01/02 03:08:12;;;;;;;2.57;1.53;;;6.50;99.90;;;;;;5021026;28;20468;-69
2024/01/02 03:10:39;;;;;;;2.87;1.33;;;6.50;99.90;;;;;;5019529;28;20464;-69
2024/01/02 03:13:06;;;;;;;3.37;1.60;;;6.50;99.90;;;;;;5019565;28;20543;-71
2024/01/02 03:15:35;;;;;;;2.10;1.23;;;6.50;99.90;;;;;;5020019;28;20456;-68
2024/01/02 03:18:02;;;;;;;3.13;1.50;;;6.50;99.90;;;;;;5020334;28;20464;-72
2024/01/02 03:20:29;;;;;;;3.10;1.30;;;6.50;99.90;;;;;;5019584;28;20468;-69
2024/01/02 03:22:56;;;;;;;2.30;1.37;;;6.40;99.90;;;;;;5018711;28;20503;-69
2024/01/02 03:25:24;;;;;;;2.40;1.20;;;6.50;99.90;;;;;;5018563;28;20495;-70
2024/01/02 03:27:51;;;;;;;2.30;1.30;;;6.50;99.90;;;;;;5018943;28;20463;-72
2024/01/02 03:30:18;;;;;;;2.13;1.20;;;6.50;99.90;;;;;;5020193;28;20470;-70
2024/01/02 03:32:47;;;;;;;3.07;1.90;;;6.50;99.90;;;;;;5020689;28;20456;-66
2024/01/02 03:35:14;;;;;;;3.63;1.60;;;6.50;99.90;;;;;;5021561;28;20742;-68
2024/01/02 03:37:42;;;;;;;3.53;1.53;;;6.60;99.90;;;;;;5019984;28;20460;-67
2024/01/02 03:40:10;;;;;;;2.43;1.43;;;6.60;99.90;;;;;;5020062;28;20518;-70
2024/01/02 03:42:37;;;;;;;3.33;1.40;;;6.60;99.90;;;;;;5021841;28;20772;-64
2024/01/02 03:45:05;;;;;;;2.53;1.43;;;6.60;99.90;;;;;;5020127;28;20907;-71
2024/01/02 03:47:32;;;;;;;2.67;1.50;;;6.60;99.90;;;;;;5019866;28;20527;-70
2024/01/02 03:50:01;;;;;;;2.10;1.30;;;6.60;99.90;;;;;;5018995;28;20466;-70
2024/01/02 03:52:28;;;;;;;2.40;1.37;;;6.70;99.90;;;;;;5020306;28;20487;-69
2024/01/02 03:54:56;;;;;;;2.50;1.20;;;6.70;99.90;;;;;;5021226;28;20518;-67
2024/01/02 03:57:23;;;;;;;2.70;1.20;;;6.80;99.90;;;;;;5020168;28;20459;-70
2024/01/02 03:59:50;;;;;;;2.33;1.57;;;6.70;99.90;;;;;;5019837;28;20467;-67
2024/01/02 04:02:17;;;;;;;2.40;1.30;;;6.70;99.90;;;;;;5019858;28;20514;-72
2024/01/02 04:04:44;;;;;;;2.10;1.30;;;6.70;99.90;;;;;;5019064;28;20893;-70
2024/01/02 04:07:14;;;;;;;2.70;1.20;;;6.60;99.90;;;;;;5018382;28;20471;-71
2024/01/02 04:09:42;;;;;;;2.23;1.33;;;6.70;99.90;;;;;;5019261;28;20471;-68
2024/01/02 04:12:09;;;;;;;2.20;1.30;;;6.70;99.90;;;;;;5020429;28;20513;-70
2024/01/02 04:14:36;;;;;;;2.50;1.60;;;6.70;99.90;;;;;;5018949;28;20562;-70
2024/01/02 04:17:04;;;;;;;2.73;1.43;;;6.70;99.90;;;;;;5018927;28;20552;-73
2024/01/02 04:19:31;;;;;;;2.20;1.40;;;6.60;99.90;;;;;;5018413;28;20479;-71
2024/01/02 04:21:58;;;;;;;3.27;1.43;;;6.60;99.90;;;;;;5020214;28;20942;-70
2024/01/02 04:24:27;;;;;;;2.40;1.50;;;6.60;99.90;;;;;;5021383;28;20488;-70
2024/01/02 04:26:54;;;;;;;2.33;1.17;;;6.60;99.90;;;;;;5017754;28;20460;-72
2024/01/02 04:29:21;;;;;;;2.50;1.50;;;6.50;99.90;;;;;;5016787;28;20464;-68
2024/01/02 04:31:48;;;;;;;2.50;1.50;;;6.50;99.90;;;;;;5012900;28;20748;-71
2024/01/02 04:34:15;;;;;;;2.27;1.50;;;6.50;99.90;;;;;;5016710;28;20484;-68
2024/01/02 04:36:44;;;;;;;2.20;1.50;;;6.60;99.90;;;;;;5015923;28;20460;-67
2024/01/02 04:39:12;;;;;;;2.73;1.23;;;6.60;99.90;;;;;;5015732;28;20460;-72
2024/01/02 04:41:40;;;;;;;3.33;1.50;;;6.60;99.90;;;;;;5016262;28;20766;-70
2024/01/02 04:44:07;;;;;;;2.00;1.20;;;6.60;99.90;;;;;;5015619;28;20500;-69
2024/01/02 04:46:35;;;;;;;2.90;1.43;;;6.60;99.90;;;;;;5016137;28;20811;-72
2024/01/02 04:49:02;;;;;;;3.13;1.60;;;6.70;99.90;;;;;;5016942;28;20765;-70
2024/01/02 04:51:30;;;;;;;3.40;1.67;;;6.70;99.90;;;;;;5018548;28;20457;-70
2024/01/02 04:53:57;;;;;;;2.30;1.60;;;6.70;99.90;;;;;;5018773;28;20463;-71
2024/01/02 04:56:25;;;;;;;2.40;1.50;;;6.70;99.90;;;;;;5018676;28;20952;-70
2024/01/02 04:58:53;;;;;;;2.97;1.30;;;6.60;99.90;;;;;;5018098;28;20718;-71
2024/01/02 05:01:20;;;;;;;2.50;1.40;;;6.70;99.90;;;;;;5021471;28;20563;-70
2024/01/02 05:03:48;;;;;;;2.23;1.37;;;6.70;99.90;;;;;;5023219;28;20503;-69
2024/01/02 05:06:15;;;;;;;2.00;1.20;;;6.70;99.90;;;;;;5022234;28;20464;-68
2024/01/02 05:08:42;;;;;;;2.43;1.33;;;6.70;99.90;;;;;;5022210;28;20490;-71
2024/01/02 05:11:09;;;;;;;2.30;1.40;;;6.70;99.90;;;;;;5021757;28;20909;-73
2024/01/02 05:13:38;;;;;;;2.20;1.30;;;6.70;99.90;;;;;;5020997;28;20536;-72
2024/01/02 05:16:08;;;;;;;2.87;1.30;;;6.80;99.90;;;;;;5019156;28;20752;-73
2024/01/02 05:18:36;;;;;;;3.00;1.60;;;6.80;99.90;;;;;;5021132;28;20467;-73
2024/01/02 05:21:03;;;;;;;2.40;1.30;;;6.80;99.90;;;;;;5022329;28;20468;-69
2024/01/02 05:23:30;;;;;;;2.27;1.50;;;6.80;99.90;;;;;;5021035;28;20494;-72
2024/01/02 05:25:58;;;;;;;2.40;1.30;;;6.90;99.90;;;;;;5020785;28;20464;-69
2024/01/02 05:28:25;;;;;;;3.03;1.30;;;6.90;99.90;;;;;;5021016;28;20911;-72
2024/01/02 05:30:52;;;;;;;2.17;1.40;;;6.90;99.90;;;;;;5020617;28;20463;-72
2024/01/02 05:33:20;;;;;;;2.10;1.20;;;7.00;99.90;;;;;;5020564;28;20458;-69
2024/01/02 05:35:48;;;;;;;2.50;1.60;;;7.00;99.90;;;;;;5021043;28;20490;-75
2024/01/02 05:38:15;;;;;;;2.90;1.37;;;7.00;99.90;;;;;;5020944;28;20460;-73
2024/01/02 05:40:42;;;;;;;2.10;1.40;;;7.00;99.90;;;;;;5021346;28;20466;-71
2024/01/02 05:43:10;;;;;;;2.10;1.40;;;7.00;99.90;;;;;;5021177;28;20578;-73
2024/01/02 05:45:37;;;;;;;2.50;1.40;;;7.00;99.90;;;;;;5021263;28;20464;-74
2024/01/02 05:48:05;;;;;;;2.40;1.50;;;7.00;99.90;;;;;;5020617;28;20567;-72
2024/01/02 05:50:34;;;;;;;2.20;1.20;;;7.10;99.90;;;;;;5021111;28;20562;-69
2024/01/02 05:53:01;;;;;;;2.10;1.40;;;7.10;99.90;;;;;;5020389;28;20460;-70
2024/01/02 05:55:28;;;;;;;2.90;1.27;;;7.10;99.90;;;;;;5020308;28;20594;-69
2024/01/02 05:57:55;;;;;;;2.70;1.60;;;7.10;99.90;;;;;;5019377;28;20894;-72
2024/01/02 06:00:23;;;;;;;4.03;3.20;;;7.20;99.90;;;;;;5020021;28;20464;-71
2024/01/02 06:02:52;;;;;;;3.57;2.97;;;7.20;99.90;;;;;;5019793;28;20532;-70
2024/01/02 06:05:19;;;;;;;3.77;2.80;;;7.20;99.90;;;;;;5018631;28;20460;-67
2024/01/02 06:07:47;;;;;;;3.57;2.90;;;7.30;99.90;;;;;;5019395;28;20464;-72
2024/01/02 06:10:15;;;;;;;3.53;2.70;;;7.30;99.90;;;;;;5020843;28;20911;-68
2024/01/02 06:12:41;;;;;;;3.47;2.37;;;7.40;99.90;;;;;;5019886;28;20487;-67
2024/01/02 06:15:08;;;;;;;2.40;1.53;;;7.40;99.90;;;;;;5020137;28;20503;-72
2024/01/02 06:17:36;;;;;;;6.97;5.23;;;7.40;99.90;;;;;;5020438;28;20460;-72
2024/01/02 06:20:04;;;;;;;3.10;1.97;;;7.50;99.90;;;;;;5019838;28;20554;-72
2024/01/02 06:22:31;;;;;;;3.73;2.47;;;7.50;99.90;;;;;;5019444;28;20464;-72
2024/01/02 06:25:00;;;;;;;7.80;5.50;;;7.60;99.90;;;;;;5019033;28;20819;-72
2024/01/02 06:27:27;;;;;;;10.20;5.67;;;7.60;99.90;;;;;;5020181;28;20555;-72
2024/01/02 06:29:54;;;;;;;2.83;1.93;;;7.60;99.90;;;;;;5019622;28;20468;-68
2024/01/02 06:32:21;;;;;;;2.80;1.93;;;7.70;99.90;;;;;;5019207;28;20464;-71
2024/01/02 06:34:48;;;;;;;2.93;1.70;;;7.70;99.90;;;;;;5019146;28;20468;-71
2024/01/02 06:37:16;;;;;;;3.60;1.30;;;7.80;99.90;;;;;;5019158;28;20828;-71
2024/01/02 06:39:43;;;;;;;3.03;2.07;;;7.90;99.90;;;;;;5019772;28;20550;-71
2024/01/02 06:42:11;;;;;;;2.37;1.40;;;7.90;99.90;;;;;;5019390;28;20919;-67
2024/01/02 06:44:39;;;;;;;2.83;1.80;;;8.00;99.90;;;;;;5019226;28;20502;-68
2024/01/02 06:47:06;;;;;;;6.60;4.70;;;8.00;99.90;;;;;;5019689;28;20761;-67
2024/01/02 06:49:33;;;;;;;2.67;1.77;;;8.10;99.90;;;;;;5020323;28;20460;-68
2024/01/02 06:52:00;;;;;;;2.37;1.77;;;8.10;99.90;;;;;;5021195;28;20554;-69
2024/01/02 06:54:27;;;;;;;2.63;2.03;;;8.20;99.90;;;;;;5022048;28;20460;-68
2024/01/02 06:56:56;;;;;;;2.30;1.77;;;8.30;99.90;;;;;;5020055;28;20491;-68
2024/01/02 06:59:25;;;;;;;2.20;1.63;;;8.40;99.90;;;;;;5020241;28;20468;-69
2024/01/02 07:01:52;;;;;;;2.60;1.97;;;8.40;99.90;;;;;;5020925;28;20482;-71
2024/01/02 07:04:19;;;;;;;2.57;1.87;;;8.40;99.90;;;;;;5019448;28;20492;-67
2024/01/02 07:06:46;;;;;;;2.93;2.17;;;8.50;99.90;;;;;;5020594;28;20463;-67
2024/01/02 07:09:14;;;;;;;3.00;2.30;;;8.50;99.90;;;;;;5018845;28;20463;-65
2024/01/02 07:11:44;;;;;;;3.40;2.90;;;8.60;99.90;;;;;;5018420;28;20905;-65
2024/01/02 07:14:11;;;;;;;3.63;3.33;;;8.70;99.90;;;;;;5019000;28;20470;-65
2024/01/02 07:16:40;;;;;;;5.50;3.60;;;8.70;99.90;;;;;;5018273;28;20463;-66
2024/01/02 07:19:07;;;;;;;4.37;3.97;;;8.80;99.90;;;;;;5019271;28;20456;-66
2024/01/02 07:21:34;;;;;;;6.53;4.17;;;8.90;99.90;;;;;;5018792;28;20460;-66
2024/01/02 07:24:02;;;;;;;4.47;4.07;;;8.90;99.90;;;;;;5017467;28;20893;-65
2024/01/02 07:26:29;;;;;;;4.20;3.80;;;9.00;99.90;;;;;;5018437;28;20471;-65
2024/01/02 07:28:56;;;;;;;4.63;4.23;;;9.10;99.90;;;;;;5017983;28;20448;-67
2024/01/02 07:31:23;;;;;;;5.07;4.57;;;9.20;99.90;;;;;;5017852;28;20772;-66
2024/01/02 07:33:52;;;;;;;4.40;3.73;;;9.20;99.90;;;;;;5018036;28;20801;-65
2024/01/02 07:36:19;;;;;;;4.03;3.63;;;9.30;99.90;;;;;;5018605;28;20471;-66
2024/01/02 07:38:46;;;;;;;4.83;3.03;;;9.40;99.90;;;;;;5018352;28;20893;-65
2024/01/02 07:41:13;;;;;;;2.93;2.63;;;9.40;99.90;;;;;;5019060;28;20460;-67
2024/01/02 07:43:41;;;;;;;3.70;2.53;;;9.50;99.90;;;;;;5017944;28;20507;-66
2024/01/02 07:46:08;;;;;;;7.53;2.70;;;9.50;99.90;;;;;;5014670;28;20834;-67
2024/01/02 07:48:35;;;;;;;2.80;2.00;;;9.60;99.90;;;;;;5006623;28;20757;-66
2024/01/02 07:51:05;;;;;;;2.40;1.90;;;9.60;99.90;;;;;;5018158;28;20597;-65
2024/01/02 07:53:33;;;;;;;2.20;1.50;;;9.70;99.90;;;;;;5017982;28;20451;-67
2024/01/02 07:56:03;;;;;;;2.80;2.00;;;9.70;99.90;;;;;;5017683;28;20460;-68
2024/01/02 07:58:30;;;;;;;2.30;1.60;;;9.80;99.90;;;;;;5018019;28;20750;-66
2024/01/02 08:00:58;;;;;;;3.30;1.77;;;9.80;99.90;;;;;;5018194;28;20464;-67
2024/01/02 08:03:25;;;;;;;3.40;1.93;;;9.90;99.90;;;;;;5018187;28;20498;-65
2024/01/02 08:05:54;;;;;;;2.40;1.77;;;10.00;99.90;;;;;;5017497;28;20855;-69
2024/01/02 08:08:23;;;;;;;2.63;1.77;;;10.00;99.90;;;;;;5017656;28;20546;-66
2024/01/02 08:10:50;;;;;;;5.17;2.23;;;10.00;99.90;;;;;;5017615;28;20449;-67
2024/01/02 08:13:17;;;;;;;2.50;1.73;;;10.00;99.90;;;;;;5017251;28;20765;-67
2024/01/02 08:15:44;;;;;;;2.40;1.60;;;10.00;99.90;;;;;;5017762;28;20518;-68
2024/01/02 08:18:12;;;;;;;2.50;1.87;;;10.10;99.90;;;;;;5017598;28;20514;-65
2024/01/02 08:20:39;;;;;;;2.37;1.63;;;10.10;99.90;;;;;;5018348;28;20567;-64
2024/01/02 08:23:07;;;;;;;2.27;1.50;;;10.20;99.90;;;;;;5018051;28;20470;-66
2024/01/02 08:25:36;;;;;;;3.53;1.60;;;10.20;99.90;;;;;;5017298;28;20530;-65
2024/01/02 08:28:04;;;;;;;2.20;1.50;;;10.20;99.90;;;;;;5017841;28;20496;-65
2024/01/02 08:30:31;;;;;;;2.53;1.63;;;10.20;99.90;;;;;;5017724;28;20467;-64
2024/01/02 08:32:58;;;;;;;2.10;1.30;;;10.30;99.90;;;;;;5017414;28;20464;-65
2024/01/02 08:35:26;;;;;;;2.77;1.80;;;10.20;99.90;;;;;;5020024;28;20468;-63
2024/01/02 08:37:53;;;;;;;2.30;1.43;;;10.30;99.90;;;;;;5021372;28;20755;-65
2024/01/02 08:40:20;;;;;;;2.40;1.80;;;10.30;99.90;;;;;;5021322;28;20554;-68
2024/01/02 08:42:49;;;;;;;2.20;1.27;;;10.30;99.90;;;;;;5021612;28;20769;-67
2024/01/02 08:45:19;;;;;;;2.30;1.60;;;10.30;99.90;;;;;;5025699;28;20523;-68
2024/01/02 08:47:47;;;;;;;2.40;1.53;;;10.30;99.90;;;;;;5025280;28;20464;-69
2024/01/02 08:50:14;;;;;;;2.40;1.50;;;10.30;99.90;;;;;;5021598;28;20513;-67
2024/01/02 08:52:45;;;;;;;2.40;1.50;;;10.30;99.90;;;;;;5021009;28;20464;-66
2024/01/02 08:55:12;;;;;;;3.23;1.70;;;10.30;99.90;;;;;;5021204;28;20460;-66
2024/01/02 08:57:40;;;;;;;2.83;1.93;;;10.30;99.90;;;;;;5020671;28;20464;-66
2024/01/02 09:00:10;;;;;;;2.37;1.57;;;10.30;99.90;;;;;;5020979;28;20514;-66
2024/01/02 09:02:38;;;;;;;2.40;1.80;;;10.30;99.90;;;;;;5021392;28;20499;-65
2024/01/02 09:05:05;;;;;;;2.70;1.90;;;10.30;99.90;;;;;;5021203;28;21024;-65
2024/01/02 09:07:33;;;;;;;2.80;1.80;;;10.30;99.90;;;;;;5021067;28;20468;-65
2024/01/02 09:10:00;;;;;;;2.60;1.97;;;10.30;99.90;;;;;;5020833;28;20463;-65
2024/01/02 09:12:27;;;;;;;3.47;2.00;;;10.30;99.90;;;;;;5020887;28;20550;-67
2024/01/02 09:14:54;;;;;;;2.80;1.90;;;10.30;99.90;;;;;;5020548;28;20787;-66
2024/01/02 09:17:23;;;;;;;2.40;1.40;;;10.30;99.90;;;;;;5020778;28;20459;-66
2024/01/02 09:19:50;;;;;;;2.80;2.23;;;10.40;99.90;;;;;;5021728;28;20559;-68
2024/01/02 09:22:17;;;;;;;2.67;1.80;;;10.30;99.90;;;;;;5020279;28;20554;-66
2024/01/02 09:24:46;;;;;;;2.40;1.67;;;10.40;99.90;;;;;;5020096;28;20830;-64
2024/01/02 09:27:14;;;;;;;2.90;2.10;;;10.40;99.90;;;;;;5011995;28;20905;-65
2024/01/02 09:29:41;;;;;;;5.77;2.20;;;10.40;99.90;;;;;;5019952;28;20455;-65
2024/01/02 09:32:11;;;;;;;2.60;2.13;;;10.40;99.90;;;;;;5021444;28;20483;-65
2024/01/02 09:34:41;;;;;;;3.00;2.47;;;10.40;99.90;;;;;;5020206;28;20891;-66
2024/01/02 09:37:09;;;;;;;3.37;3.07;;;10.50;99.90;;;;;;5020314;28;20494;-64
2024/01/02 09:39:36;;;;;;;3.40;3.10;;;10.50;99.90;;;;;;5019724;28;20555;-65
2024/01/02 09:42:28;;;;;;;3.57;3.27;;;10.50;99.90;;;;;;5020221;28;20546;-66
2024/01/02 09:45:04;;;;;;;3.87;3.50;;;10.50;99.90;;;;;;5019273;28;20499;-65
2024/01/02 09:47:59;;;;;;;3.47;3.17;;;10.60;99.90;;;;;;5017945;28;20459;-63
2024/01/02 09:50:34;;;;;;;4.17;2.83;;;10.60;99.90;;;;;;5018690;28;20518;-64
2024/01/02 09:53:22;;;;;;;3.20;2.87;;;10.60;99.90;;;;;;5018874;28;20463;-64
2024/01/02 09:55:54;;;;;;;3.37;3.07;;;10.60;99.90;;;;;;5018143;28;20460;-65
2024/01/02 09:58:31;;;;;;;3.37;2.67;;;10.60;99.90;;;;;;5017094;28;20885;-66
2024/01/02 10:01:08;;;;;;;2.87;2.57;;;10.60;99.90;;;;;;5019622;28;20471;-65
2024/01/02 10:04:12;;;;;;;3.57;3.27;;;10.60;99.90;;;;;;5018136;28;20995;-65
2024/01/02 10:07:01;;;;;;;3.50;3.20;;;10.60;99.90;;;;;;5021700;28;20547;-67
2024/01/02 10:09:41;;;;;;;4.07;3.53;;;10.60;99.90;;;;;;5019910;28;20551;-63
2024/01/02 10:12:19;;;;;;;3.80;3.33;;;10.60;99.90;;;;;;5019420;28;20546;-66
2024/01/02 10:15:00;;;;;;;4.03;3.67;;;10.60;99.90;;;;;;5018193;28;20464;-63
2024/01/02 10:17:42;;;;;;;4.93;4.53;;;10.70;99.90;;;;;;5019732;28;20460;-64
2024/01/02 10:20:18;;;;;;;4.80;4.40;;;10.70;99.90;;;;;;5018830;28;20513;-64
2024/01/02 10:22:53;;;;;;;4.77;4.33;;;10.70;99.90;;;;;;5019197;28;20456;-66
2024/01/02 10:25:22;;;;;;;4.03;3.70;;;10.70;99.90;;;;;;5018282;28;20944;-66
2024/01/02 10:27:59;;;;;;;3.90;2.53;;;10.70;99.90;;;;;;5018787;28;20471;-65
2024/01/02 10:30:34;;;;;;;3.70;2.37;;;10.70;99.90;;;;;;5019462;28;20512;-63
2024/01/02 10:33:12;;;;;;;3.10;1.70;;;10.70;99.90;;;;;;5019524;28;20460;-64
2024/01/02 10:35:46;;;;;;;3.10;1.70;;;10.80;99.90;;;;;;5019160;28;20460;-65
2024/01/02 10:38:37;;;;;;;2.60;1.50;;;10.80;99.90;;;;;;5019746;28;20716;-65
2024/01/02 10:41:09;;;;;;;2.87;1.20;;;10.80;99.90;;;;;;5019551;28;20492;-65
2024/01/02 10:43:47;;;;;;;4.00;1.40;;;10.80;99.90;;;;;;5019231;28;20915;-64
2024/01/02 10:46:23;;;;;;;2.50;1.50;;;10.80;99.90;;;;;;5019159;28;20460;-65
2024/01/02 10:49:04;;;;;;;2.17;1.20;;;10.80;99.90;;;;;;5019410;28;20464;-66
2024/01/02 10:51:39;;;;;;;2.67;1.40;;;10.80;99.90;;;;;;5018561;28;20470;-68
2024/01/02 10:54:13;;;;;;;2.93;1.40;;;10.80;99.90;;;;;;5018981;28;20514;-70
2024/01/02 10:56:45;;;;;;;2.40;1.40;;;10.80;99.90;;;;;;5018749;28;20559;-66
2024/01/02 10:59:41;;;;;;;2.20;1.50;;;10.90;99.90;;;;;;5018965;28;20877;-66
2024/01/02 11:02:22;;;;;;;2.57;1.80;;;10.90;99.90;;;;;;5018841;28;20441;-65
2024/01/02 11:05:00;;;;;;;2.30;1.20;;;10.90;99.90;;;;;;5018780;28;20492;-66
2024/01/02 11:07:35;;;;;;;2.40;1.50;;;10.90;99.90;;;;;;5018442;28;20468;-65
2024/01/02 11:10:09;;;;;;;2.10;1.23;;;10.90;99.90;;;;;;5018169;28;20467;-65
2024/01/02 11:12:46;;;;;;;2.80;1.30;;;10.90;99.90;;;;;;5018484;28;20470;-66
2024/01/02 11:15:15;;;;;;;2.43;1.70;;;10.90;99.90;;;;;;5018699;28;20460;-64
2024/01/02 11:17:44;;;;;;;2.50;1.37;;;10.80;99.90;;;;;;5018323;28;20464;-65
2024/01/02 11:20:14;;;;;;;3.17;2.03;;;10.80;99.90;;;;;;5017575;28;20468;-65
2024/01/02 11:22:48;;;;;;;3.93;2.40;;;10.80;99.90;;;;;;5006252;28;20476;-64
2024/01/02 11:25:19;;;;;;;3.10;2.07;;;10.80;99.90;;;;;;4998067;28;20607;-65
2024/01/02 11:27:47;;;;;;;3.13;1.90;;;10.80;99.90;;;;;;4997287;28;20603;-65
2024/01/02 11:30:17;;;;;;;3.00;1.80;;;10.70;99.90;;;;;;4997199;28;20460;-66
2024/01/02 11:32:57;;;;;;;3.20;1.80;;;10.70;99.90;;;;;;4997175;28;20465;-66
2024/01/02 11:35:25;;;;;;;3.10;1.90;;;10.70;99.90;;;;;;4997627;28;20552;-65
2024/01/02 11:38:04;;;;;;;2.90;2.13;;;10.70;99.90;;;;;;4997074;28;20492;-64
2024/01/02 11:40:47;;;;;;;2.60;1.57;;;10.70;99.90;;;;;;4997354;28;20894;-63
2024/01/02 11:43:24;;;;;;;3.10;1.30;;;10.60;99.90;;;;;;4998814;28;20496;-63
2024/01/02 11:45:58;;;;;;;2.30;1.33;;;10.60;99.90;;;;;;4998227;28;20504;-63
2024/01/02 11:48:39;;;;;;;2.30;1.57;;;10.60;99.90;;;;;;4998536;28;20551;-64
2024/01/02 11:51:15;;;;;;;2.70;1.50;;;10.50;99.90;;;;;;4998854;28;20460;-63
2024/01/02 11:53:56;;;;;;;3.03;1.63;;;10.50;99.90;;;;;;4999241;28;20535;-67
2024/01/02 11:56:25;;;;;;;2.37;1.53;;;10.50;99.90;;;;;;5000104;28;20460;-67
2024/01/02 11:59:04;;;;;;;2.30;1.50;;;10.40;99.90;;;;;;5009905;28;20602;-63
2024/01/02 12:01:39;;;;;;;2.40;1.43;;;10.40;99.90;;;;;;5018852;28;20764;-65
2024/01/02 12:04:16;;;;;;;2.30;1.70;;;10.40;99.90;;;;;;5018547;28;20836;-64
2024/01/02 12:06:53;;;;;;;2.60;1.60;;;10.30;99.90;;;;;;5018265;28;20562;-64
2024/01/02 12:09:20;;;;;;;3.27;1.70;;;10.20;99.90;;;;;;5017703;28;20470;-62
2024/01/02 12:11:57;;;;;;;2.87;1.53;;;10.20;99.90;;;;;;5018320;28;20886;-65
2024/01/02 12:14:41;;;;;;;2.23;1.33;;;10.20;99.90;;;;;;5020692;28;20456;-65
2024/01/02 12:17:12;;;;;;;2.87;1.60;;;10.10;99.90;;;;;;5021522;28;21044;-63
2024/01/02 12:19:40;;;;;;;2.40;1.57;;;10.00;99.90;;;;;;5022397;28;20468;-66
2024/01/02 12:22:07;;;;;;;2.43;1.80;;;10.00;99.90;;;;;;5021798;28;20460;-66
2024/01/02 12:24:36;;;;;;;2.97;1.60;;;10.00;99.90;;;;;;5021056;28;20816;-65
2024/01/02 12:27:06;;;;;;;2.47;1.40;;;9.90;99.90;;;;;;5018848;28;20514;-70
2024/01/02 12:29:39;;;;;;;2.70;1.80;;;9.90;99.90;;;;;;5020960;28;20456;-66
2024/01/02 12:32:15;;;;;;;2.63;1.60;;;9.80;99.90;;;;;;5020577;28;20460;-63
2024/01/02 12:34:48;;;;;;;2.40;1.30;;;9.80;99.90;;;;;;5020031;28;20877;-69
2024/01/02 12:37:23;;;;;;;2.60;1.50;;;9.80;99.90;;;;;;5019066;28;20467;-69
2024/01/02 12:39:53;;;;;;;2.20;1.10;;;9.90;99.90;;;;;;5019914;28;20491;-71
2024/01/02 12:42:25;;;;;;;2.70;1.30;;;9.80;99.90;;;;;;5020325;28;20551;-68
2024/01/02 12:44:54;;;;;;;3.10;1.67;;;9.80;99.90;;;;;;5020870;28;20921;-66
2024/01/02 12:47:24;;;;;;;4.40;1.90;;;9.80;99.90;;;;;;5021419;28;20463;-68
2024/01/02 12:49:56;;;;;;;2.53;1.40;;;9.70;99.90;;;;;;5018552;28;20541;-64
2024/01/02 12:52:27;;;;;;;2.77;1.40;;;9.70;99.90;;;;;;5018064;28;20467;-68
2024/01/02 12:54:58;;;;;;;2.70;1.70;;;9.70;99.90;;;;;;5017085;28;20575;-68
2024/01/02 12:57:32;;;;;;;3.57;1.70;;;9.70;99.90;;;;;;5016277;28;20456;-66
2024/01/02 13:00:05;;;;;;;3.70;1.87;;;9.60;99.90;;;;;;5016420;28;20464;-66
2024/01/02 13:02:36;;;;;;;4.67;3.20;;;9.60;99.90;;;;;;5019302;28;20518;-68
2024/01/02 13:05:04;;;;;;;4.63;3.17;;;9.70;99.90;;;;;;5016118;28;20484;-72